Hildegaard — C6QU3 — position and weather

sailwx.info

Track history (hours):
 
Tides and Currents Weather Stations Pressure Air Temp Water Temp Dewpoint Dewpoint Depression Visibility Wind Speed Wind Dir Waves Ship Positions

Hildegaard

Last reported at 2018-Apr-17 14:59 UTC. Time now 2018-Apr-26 23:16 UTC.
Position N 52°47' E 003°01'.
Warning: this ship's position is 9 days out of date.

Length 248 m; draft 8.5 m.

Type: Ship (hazmat cat A). MMSI: 308574000.

Date/timePositionNaut miles runAvg speedWind from/ knotsBaromVisibWave heightAir tempDewpointWater temp
2018-Apr-17 14:59N 52°47' E 003°01'13 6.0
2018-Apr-17 12:54N 52°34' E 003°05'3 6.1
2018-Apr-17 12:24N 52°32' E 003°07'4 5.7
2018-Apr-17 11:47N 52°28' E 003°09'3 5.5
2018-Apr-17 11:14N 52°26' E 003°11'1 5.3
2018-Apr-17 11:00N 52°24' E 003°12'7 5.2
2018-Apr-17 09:44N 52°19' E 003°17'2 5.1
2018-Apr-17 09:26N 52°17' E 003°19'6 5.4
2018-Apr-17 08:22N 52°13' E 003°25'2 5.6
2018-Apr-17 08:00N 52°11' E 003°27'3 5.8
2018-Apr-17 07:28N 52°09' E 003°31'3 6.2
2018-Apr-17 06:57N 52°07' E 003°35'3 6.1
2018-Apr-17 06:30N 52°07' E 003°39'3 5.4
2018-Apr-17 05:58N 52°08' E 003°44'0 0.1
2018-Apr-17 05:28N 52°08' E 003°44'0 0.1
2018-Apr-17 04:58N 52°08' E 003°44'0 0.1
2018-Apr-17 04:25N 52°08' E 003°44'0 0.0
2018-Apr-17 03:40N 52°08' E 003°44'0 0.0
2018-Apr-17 03:19N 52°08' E 003°44'0 0.0
2018-Apr-17 02:58N 52°08' E 003°44'0 0.0
2018-Apr-17 02:16N 52°08' E 003°44'0 0.0
2018-Apr-17 01:55N 52°08' E 003°44'0 0.0
2018-Apr-17 01:25N 52°08' E 003°44'0 0.0
2018-Apr-17 00:55N 52°08' E 003°44'0 0.2
2018-Apr-17 00:28N 52°08' E 003°44'0 0.3
2018-Apr-16 23:58N 52°08' E 003°44'0 0.1
2018-Apr-16 23:28N 52°08' E 003°44'0 0.1
2018-Apr-16 22:58N 52°08' E 003°44'0 0.0
2018-Apr-16 22:28N 52°08' E 003°44'0 0.0
2018-Apr-16 21:58N 52°08' E 003°44'0 0.0
2018-Apr-16 21:25N 52°08' E 003°44'0 0.0
2018-Apr-16 20:58N 52°08' E 003°44'0 0.0
2018-Apr-16 20:28N 52°08' E 003°44'0 0.0
2018-Apr-16 19:58N 52°08' E 003°44'0 0.1
2018-Apr-16 19:25N 52°08' E 003°44'0 0.4
2018-Apr-16 18:58N 52°08' E 003°44'0 0.1
2018-Apr-16 18:25N 52°08' E 003°44'0 0.0
2018-Apr-16 17:55N 52°08' E 003°44'0 0.0
2018-Apr-16 17:25N 52°08' E 003°44'0 0.0
2018-Apr-16 16:55N 52°08' E 003°44'0 0.0
2018-Apr-16 16:28N 52°08' E 003°44'0 0.0
2018-Apr-16 15:52N 52°08' E 003°44'0 0.0
2018-Apr-16 15:25N 52°08' E 003°44'0 0.0
2018-Apr-16 14:52N 52°08' E 003°44'0 0.0
2018-Apr-16 14:28N 52°08' E 003°44'0 0.0
2018-Apr-16 13:55N 52°08' E 003°44'0 0.0
2018-Apr-16 13:28N 52°08' E 003°44'0 0.0
2018-Apr-16 12:58N 52°08' E 003°44'0 0.0
2018-Apr-16 12:22N 52°08' E 003°44'0 0.1
2018-Apr-16 11:58N 52°08' E 003°44'0 0.3
2018-Apr-16 11:28N 52°08' E 003°44'0 0.2
2018-Apr-16 10:58N 52°08' E 003°44'0 0.0
2018-Apr-16 10:04N 52°08' E 003°44'0 0.0
2018-Apr-16 09:58N 52°08' E 003°44'0 0.0
2018-Apr-16 09:25N 52°08' E 003°44'0 0.0
2018-Apr-16 08:58N 52°08' E 003°44'0 0.0
2018-Apr-16 08:28N 52°08' E 003°44'0 0.1
2018-Apr-16 07:46N 52°08' E 003°44'0 0.3
2018-Apr-16 07:22N 52°08' E 003°44'0 0.2
2018-Apr-16 06:43N 52°08' E 003°44'0 0.0
2018-Apr-16 06:28N 52°08' E 003°44'0 0.1
2018-Apr-16 05:52N 52°08' E 003°44'0 0.0
2018-Apr-16 05:28N 52°08' E 003°44'0 0.1
2018-Apr-16 04:58N 52°08' E 003°44'0 0.1
2018-Apr-16 04:28N 52°08' E 003°44'0 0.0
2018-Apr-16 03:46N 52°08' E 003°44'0 0.0
2018-Apr-16 03:25N 52°08' E 003°44'0 0.0
2018-Apr-16 02:55N 52°08' E 003°44'0 0.0
2018-Apr-16 02:25N 52°08' E 003°44'0 0.0
2018-Apr-16 01:58N 52°08' E 003°44'0 0.0
2018-Apr-16 01:22N 52°08' E 003°44'0 0.0
2018-Apr-16 00:49N 52°08' E 003°44'0 0.0
2018-Apr-16 00:28N 52°08' E 003°44'0 0.1
2018-Apr-15 23:58N 52°08' E 003°44'0 0.3
2018-Apr-15 23:28N 52°08' E 003°44'0 0.1
2018-Apr-15 22:58N 52°08' E 003°44'0 0.0
2018-Apr-15 22:28N 52°08' E 003°44'0 0.0
2018-Apr-15 21:58N 52°08' E 003°44'0 0.0
2018-Apr-15 21:28N 52°08' E 003°44'0 0.1
2018-Apr-15 20:58N 52°08' E 003°44'0 0.0
2018-Apr-15 20:28N 52°08' E 003°44'0 0.0
2018-Apr-15 19:58N 52°08' E 003°44'0 0.0
2018-Apr-15 19:28N 52°08' E 003°44'0 0.0
2018-Apr-15 18:58N 52°08' E 003°44'0 0.0
2018-Apr-15 18:28N 52°08' E 003°44'0 0.0
2018-Apr-15 17:58N 52°08' E 003°44'0 0.3
2018-Apr-15 17:25N 52°08' E 003°44'0 0.2
2018-Apr-15 16:52N 52°08' E 003°44'0 0.1
2018-Apr-15 16:25N 52°08' E 003°44'0 0.0
2018-Apr-15 15:55N 52°08' E 003°44'0 0.0
2018-Apr-15 15:28N 52°08' E 003°44'0 0.0
2018-Apr-15 14:49N 52°08' E 003°44'0 0.0
2018-Apr-15 14:28N 52°08' E 003°44'0 0.0
2018-Apr-15 13:58N 52°08' E 003°44'0 0.0
2018-Apr-15 13:28N 52°08' E 003°44'0 0.0
2018-Apr-15 12:58N 52°08' E 003°44'0 0.0
2018-Apr-15 12:28N 52°08' E 003°44'0 0.1
2018-Apr-15 11:58N 52°08' E 003°44'0 0.5
2018-Apr-15 11:28N 52°08' E 003°44'0 0.1
2018-Apr-15 10:58N 52°08' E 003°44'0 0.0
2018-Apr-15 10:28N 52°08' E 003°44'0 0.0
2018-Apr-15 09:58N 52°08' E 003°44'0 0.0
2018-Apr-15 09:28N 52°08' E 003°44'0 0.0
2018-Apr-15 08:55N 52°08' E 003°44'0 0.0
2018-Apr-15 08:28N 52°08' E 003°44'0 0.0
2018-Apr-15 07:58N 52°08' E 003°44'0 0.0
2018-Apr-15 07:28N 52°07' E 003°44'0 0.0
2018-Apr-15 06:55N 52°07' E 003°44'0 0.0
2018-Apr-15 06:28N 52°07' E 003°44'0 0.0
2018-Apr-15 05:58N 52°08' E 003°44'0 0.2
2018-Apr-15 05:28N 52°08' E 003°44'0 0.2
2018-Apr-15 04:55N 52°08' E 003°44'0 0.1
2018-Apr-15 04:28N 52°08' E 003°44'0 0.1
2018-Apr-15 03:58N 52°08' E 003°44'0 0.0
2018-Apr-15 03:28N 52°08' E 003°44'0 0.0
2018-Apr-15 02:58N 52°08' E 003°44'0 0.0
2018-Apr-15 01:34N 52°08' E 003°44'0 0.0
2018-Apr-15 01:25N 52°08' E 003°44'0 0.0
2018-Apr-15 00:46N 52°08' E 003°44'0 0.0
2018-Apr-15 00:28N 52°08' E 003°44'0 0.2
2018-Apr-14 23:58N 52°08' E 003°44'0 0.3
2018-Apr-14 23:28N 52°08' E 003°44'0 0.0
2018-Apr-14 22:58N 52°08' E 003°44'0 0.1
2018-Apr-14 22:28N 52°08' E 003°44'0 0.0
2018-Apr-14 21:58N 52°08' E 003°44'0 0.0
2018-Apr-14 21:28N 52°08' E 003°44'0 0.0
2018-Apr-14 20:58N 52°07' E 003°44'0 0.0
2018-Apr-14 20:28N 52°07' E 003°44'0 0.0
2018-Apr-14 19:58N 52°07' E 003°44'0 0.0
2018-Apr-14 19:25N 52°07' E 003°44'0 0.0
2018-Apr-14 18:58N 52°07' E 003°44'0 0.0
2018-Apr-14 18:28N 52°07' E 003°44'0 0.0
2018-Apr-14 17:58N 52°07' E 003°44'0 0.0
2018-Apr-14 17:28N 52°07' E 003°44'0 0.3
2018-Apr-14 16:55N 52°08' E 003°44'0 0.3
2018-Apr-14 16:28N 52°08' E 003°44'0 0.0
2018-Apr-14 14:31N 52°08' E 003°44'0 0.0
2018-Apr-14 14:19N 52°08' E 003°44'0 0.0
2018-Apr-14 13:22N 52°08' E 003°44'0 0.0
2018-Apr-14 11:40N 52°08' E 003°44'0 0.2
2018-Apr-14 11:19N 52°08' E 003°44'0 0.1
2018-Apr-14 10:55N 52°08' E 003°44'0 0.2
2018-Apr-14 10:28N 52°08' E 003°44'0 0.1
2018-Apr-14 09:58N 52°08' E 003°44'0 0.0
2018-Apr-14 09:28N 52°08' E 003°44'0 0.0
2018-Apr-14 08:58N 52°08' E 003°44'0 0.0
2018-Apr-14 08:28N 52°08' E 003°44'0 0.0
2018-Apr-14 07:58N 52°08' E 003°44'0 0.0
2018-Apr-14 07:28N 52°08' E 003°44'0 0.0
2018-Apr-14 06:58N 52°08' E 003°44'0 0.0
2018-Apr-14 06:22N 52°07' E 003°44'0 0.0
2018-Apr-14 05:46N 52°07' E 003°44'0 0.1
2018-Apr-14 05:22N 52°07' E 003°44'0 0.3
2018-Apr-14 04:46N 52°08' E 003°44'0 0.0
2018-Apr-14 03:58N 52°08' E 003°44'0 0.0
2018-Apr-14 03:25N 52°08' E 003°44'0 0.0
2018-Apr-14 00:43N 52°08' E 003°44'0 0.0
2018-Apr-14 00:13N 52°08' E 003°44'0 0.0
2018-Apr-13 23:37N 52°08' E 003°44'0 0.1
2018-Apr-13 23:28N 52°08' E 003°44'0 0.1
2018-Apr-13 22:43N 52°08' E 003°44'0 0.2
2018-Apr-13 22:28N 52°08' E 003°44'0 0.2
2018-Apr-13 21:55N 52°08' E 003°44'0 0.1
2018-Apr-13 21:25N 52°08' E 003°44'0 0.0
2018-Apr-13 20:58N 52°08' E 003°44'0 0.0
2018-Apr-13 20:28N 52°08' E 003°44'0 0.0
2018-Apr-13 19:58N 52°08' E 003°44'0 0.0
2018-Apr-13 19:28N 52°08' E 003°44'0 0.0
2018-Apr-13 18:46N 52°08' E 003°44'0 0.0
2018-Apr-13 18:28N 52°08' E 003°44'0 0.0
2018-Apr-13 17:58N 52°08' E 003°44'0 0.0
2018-Apr-13 17:28N 52°08' E 003°44'0 0.1
2018-Apr-13 16:52N 52°08' E 003°44'0 0.3
2018-Apr-13 16:22N 52°08' E 003°44'0 0.0
2018-Apr-13 13:58N 52°08' E 003°44'0 0.0
2018-Apr-13 13:25N 52°08' E 003°44'0 0.0
2018-Apr-13 12:55N 52°08' E 003°44'0 0.0
2018-Apr-13 12:28N 52°08' E 003°44'0 0.0
2018-Apr-13 11:46N 52°08' E 003°44'0 0.1
2018-Apr-13 11:28N 52°08' E 003°44'0 0.1
2018-Apr-13 10:34N 52°08' E 003°44'0 0.1
2018-Apr-13 10:28N 52°08' E 003°44'0 0.2
2018-Apr-13 09:40N 52°08' E 003°44'0 0.2
2018-Apr-13 09:22N 52°07' E 003°44'0 0.1
2018-Apr-13 08:58N 52°08' E 003°44'0 0.0
2018-Apr-13 08:28N 52°08' E 003°44'0 0.0
2018-Apr-13 07:49N 52°07' E 003°44'0 0.0
2018-Apr-13 07:16N 52°07' E 003°44'0 0.0
2018-Apr-13 06:58N 52°07' E 003°44'0 0.0
2018-Apr-13 06:13N 52°07' E 003°44'0 0.0
2018-Apr-13 05:55N 52°07' E 003°44'0 0.0
2018-Apr-13 05:28N 52°07' E 003°44'0 0.0
2018-Apr-13 04:58N 52°08' E 003°44'0 0.1
2018-Apr-13 04:28N 52°08' E 003°44'0 0.3
2018-Apr-13 03:58N 52°08' E 003°44'0 0.1
2018-Apr-13 01:34N 52°08' E 003°44'0 0.0
2018-Apr-13 01:25N 52°08' E 003°44'0 0.0
2018-Apr-13 00:55N 52°08' E 003°44'0 0.0
2018-Apr-13 00:28N 52°08' E 003°44'0 0.0
2018-Apr-12 23:58N 52°08' E 003°44'0 0.1
2018-Apr-12 23:28N 52°08' E 003°44'0 0.1
2018-Apr-12 22:58N 52°08' E 003°44'0 0.3
2018-Apr-12 22:28N 52°08' E 003°44'0 0.1
2018-Apr-12 21:55N 52°08' E 003°44'0 0.0
2018-Apr-12 21:25N 52°07' E 003°44'0 0.0
2018-Apr-12 20:58N 52°07' E 003°44'0 0.0
2018-Apr-12 20:22N 52°07' E 003°44'0 0.0
2018-Apr-12 19:55N 52°07' E 003°44'0 0.0
2018-Apr-12 19:19N 52°07' E 003°44'0 0.0
2018-Apr-12 18:58N 52°07' E 003°44'0 0.0
2018-Apr-12 18:28N 52°07' E 003°44'0 0.0
2018-Apr-12 17:55N 52°07' E 003°44'0 0.0
2018-Apr-12 17:28N 52°07' E 003°44'0 0.0
2018-Apr-12 16:52N 52°07' E 003°44'0 0.0
2018-Apr-12 16:28N 52°07' E 003°44'0 0.1
2018-Apr-12 15:55N 52°07' E 003°44'0 0.0
2018-Apr-12 15:22N 52°07' E 003°44'0 0.3
2018-Apr-12 14:55N 52°08' E 003°44'0 0.2
2018-Apr-12 14:22N 52°08' E 003°44'0 0.1
2018-Apr-12 13:58N 52°08' E 003°44'0 0.1
2018-Apr-12 13:28N 52°08' E 003°44'0 0.1
2018-Apr-12 12:52N 52°08' E 003°44'0 0.1
2018-Apr-12 12:28N 52°08' E 003°44'0 0.0
2018-Apr-12 11:49N 52°08' E 003°44'0 0.1
2018-Apr-12 11:25N 52°08' E 003°44'0 0.1
2018-Apr-12 10:58N 52°08' E 003°44'0 0.1
2018-Apr-12 10:28N 52°08' E 003°44'0 0.2
2018-Apr-12 09:58N 52°08' E 003°44'0 0.1
2018-Apr-12 09:28N 52°08' E 003°44'0 0.1
2018-Apr-12 08:58N 52°08' E 003°44'0 0.1
2018-Apr-12 08:22N 52°07' E 003°44'0 0.1
2018-Apr-12 07:58N 52°08' E 003°44'0 0.1
2018-Apr-12 07:22N 52°08' E 003°44'0 0.1
2018-Apr-12 06:58N 52°08' E 003°44'0 0.0
2018-Apr-12 06:28N 52°08' E 003°44'0 0.0
2018-Apr-12 05:58N 52°08' E 003°44'0 0.0
2018-Apr-12 05:28N 52°08' E 003°44'0 0.0
2018-Apr-12 04:55N 52°08' E 003°44'0 0.1
2018-Apr-12 04:28N 52°08' E 003°44'0 0.1
2018-Apr-12 03:58N 52°08' E 003°44'0 0.0
2018-Apr-12 03:28N 52°08' E 003°44'0 0.1
2018-Apr-12 02:52N 52°08' E 003°44'0 0.3
2018-Apr-12 02:28N 52°08' E 003°44'0 0.2
2018-Apr-12 01:58N 52°08' E 003°44'0 0.1
2018-Apr-12 01:22N 52°08' E 003°44'0 0.0
2018-Apr-12 00:46N 52°08' E 003°44'0 0.0
2018-Apr-12 00:28N 52°08' E 003°44'0 0.2
2018-Apr-11 23:58N 52°08' E 003°44'0 0.1
2018-Apr-11 23:28N 52°08' E 003°44'0 0.0
2018-Apr-11 22:58N 52°08' E 003°44'0 0.3
2018-Apr-11 22:28N 52°08' E 003°44'0 0.2
2018-Apr-11 21:58N 52°08' E 003°44'0 0.3
2018-Apr-11 21:28N 52°08' E 003°44'0 0.1
2018-Apr-11 20:58N 52°08' E 003°44'0 0.0
2018-Apr-11 20:28N 52°08' E 003°44'0 0.0
2018-Apr-11 19:58N 52°08' E 003°44'0 0.0
2018-Apr-11 19:28N 52°08' E 003°44'0 0.0
2018-Apr-11 18:55N 52°08' E 003°44'0 0.0
2018-Apr-11 18:22N 52°08' E 003°44'0 0.0
2018-Apr-11 17:58N 52°08' E 003°44'0 0.0
2018-Apr-11 16:31N 52°08' E 003°44'0 0.1
2018-Apr-11 16:25N 52°08' E 003°44'0 0.0
2018-Apr-11 15:58N 52°08' E 003°44'0 0.0
2018-Apr-11 15:28N 52°08' E 003°44'0 0.1
2018-Apr-11 14:52N 52°07' E 003°44'0 0.4
2018-Apr-11 14:28N 52°08' E 003°44'0 0.4
2018-Apr-11 13:58N 52°08' E 003°44'0 0.1
2018-Apr-11 13:28N 52°08' E 003°44'0 0.0
2018-Apr-11 12:55N 52°08' E 003°44'0 0.0
2018-Apr-11 12:28N 52°08' E 003°44'0 0.0
2018-Apr-11 10:28N 52°08' E 003°44'0 0.2
2018-Apr-11 09:49N 52°08' E 003°44'0 0.3
2018-Apr-11 09:28N 52°08' E 003°44'0 0.2
2018-Apr-11 08:55N 52°08' E 003°44'0 0.0
2018-Apr-11 08:28N 52°08' E 003°44'0 0.0
2018-Apr-11 07:55N 52°08' E 003°44'0 0.0
2018-Apr-11 07:25N 52°08' E 003°44'0 0.0
2018-Apr-11 06:58N 52°08' E 003°44'0 0.1
2018-Apr-11 06:28N 52°08' E 003°44'0 0.0
2018-Apr-11 05:58N 52°08' E 003°44'0 0.0
2018-Apr-11 05:13N 52°08' E 003°44'0 0.1
2018-Apr-11 04:58N 52°08' E 003°44'0 0.0
2018-Apr-11 04:25N 52°08' E 003°44'0 0.0
2018-Apr-11 03:52N 52°08' E 003°44'0 0.0
2018-Apr-11 03:28N 52°08' E 003°44'0 0.1
2018-Apr-11 02:58N 52°08' E 003°44'0 0.1
2018-Apr-11 02:25N 52°08' E 003°44'0 0.2
2018-Apr-11 01:22N 52°08' E 003°44'0 0.2
2018-Apr-11 00:58N 52°08' E 003°44'0 0.0
2018-Apr-11 00:25N 52°08' E 003°44'0 0.0
2018-Apr-10 23:55N 52°08' E 003°44'0 0.1
2018-Apr-10 23:28N 52°08' E 003°44'0 0.0
2018-Apr-10 22:52N 52°08' E 003°44'0 0.1
2018-Apr-10 22:25N 52°08' E 003°44'0 0.1
2018-Apr-10 21:58N 52°08' E 003°44'0 0.1
2018-Apr-10 21:28N 52°08' E 003°44'0 0.0
2018-Apr-10 20:58N 52°08' E 003°44'0 0.3
2018-Apr-10 20:28N 52°08' E 003°44'0 0.2
2018-Apr-10 19:55N 52°08' E 003°44'0 0.1
2018-Apr-10 19:28N 52°08' E 003°44'0 0.0
2018-Apr-10 18:58N 52°08' E 003°44'0 0.0
2018-Apr-10 18:28N 52°08' E 003°44'0 0.0
2018-Apr-10 17:58N 52°08' E 003°44'0 0.0
2018-Apr-10 17:28N 52°08' E 003°44'0 0.0
2018-Apr-10 16:58N 52°08' E 003°44'0 0.0
2018-Apr-10 16:28N 52°08' E 003°44'0 0.0
2018-Apr-10 15:58N 52°08' E 003°44'0 0.0
2018-Apr-10 15:25N 52°08' E 003°44'0 0.0
2018-Apr-10 14:58N 52°08' E 003°44'0 0.0
2018-Apr-10 14:28N 52°08' E 003°44'0 0.0
2018-Apr-10 13:55N 52°08' E 003°44'0 0.2
2018-Apr-10 13:10N 52°08' E 003°44'0 0.1
2018-Apr-10 12:52N 52°08' E 003°44'0 0.1
2018-Apr-10 11:22N 52°08' E 003°44'0 0.1
2018-Apr-10 10:49N 52°08' E 003°44'0 0.0
2018-Apr-10 10:25N 52°08' E 003°44'0 0.0
2018-Apr-10 09:49N 52°08' E 003°44'0 0.1
2018-Apr-10 09:28N 52°08' E 003°44'0 0.0
2018-Apr-10 08:28N 52°08' E 003°44'0 0.0
2018-Apr-10 07:55N 52°08' E 003°44'0 0.1
2018-Apr-10 07:19N 52°08' E 003°44'0 0.3
2018-Apr-10 06:58N 52°08' E 003°44'0 0.3
2018-Apr-10 06:28N 52°08' E 003°44'0 0.0
2018-Apr-10 05:55N 52°08' E 003°44'0 0.0
2018-Apr-10 05:28N 52°08' E 003°44'0 0.0
2018-Apr-10 04:58N 52°08' E 003°44'0 0.1
2018-Apr-10 04:28N 52°08' E 003°44'0 0.0
2018-Apr-10 03:58N 52°08' E 003°44'0 0.0
2018-Apr-10 03:28N 52°08' E 003°44'0 0.0
2018-Apr-10 02:58N 52°08' E 003°44'0 0.1
2018-Apr-10 02:28N 52°08' E 003°44'0 0.0
2018-Apr-10 01:58N 52°08' E 003°44'0 0.0
2018-Apr-10 01:28N 52°08' E 003°44'0 0.1
2018-Apr-10 00:58N 52°08' E 003°44'0 0.1
2018-Apr-10 00:28N 52°08' E 003°44'0 0.0
2018-Apr-09 23:58N 52°08' E 003°44'0 0.0
2018-Apr-09 23:28N 52°08' E 003°44'0 0.0
2018-Apr-09 22:58N 52°08' E 003°44'0 0.2
2018-Apr-09 22:28N 52°08' E 003°44'0 0.2
2018-Apr-09 21:58N 52°08' E 003°44'0 0.0
2018-Apr-09 21:25N 52°08' E 003°44'0 0.1
2018-Apr-09 20:58N 52°08' E 003°44'0 0.2
2018-Apr-09 20:25N 52°08' E 003°44'0 0.2
2018-Apr-09 19:58N 52°08' E 003°44'0 0.1
2018-Apr-09 19:28N 52°08' E 003°44'0 0.1
2018-Apr-09 18:58N 52°08' E 003°44'0 0.0
2018-Apr-09 18:28N 52°08' E 003°44'0 0.0
2018-Apr-09 17:58N 52°08' E 003°44'0 0.0
2018-Apr-09 17:28N 52°08' E 003°44'0 0.0
2018-Apr-09 16:58N 52°08' E 003°44'0 0.0
2018-Apr-09 16:28N 52°08' E 003°44'0 0.0
2018-Apr-09 15:52N 52°08' E 003°44'0 0.0
2018-Apr-09 15:28N 52°08' E 003°44'0 0.0
2018-Apr-09 14:52N 52°08' E 003°44'0 0.0
2018-Apr-09 14:28N 52°08' E 003°44'0 0.0
2018-Apr-09 13:58N 52°08' E 003°44'0 0.0
2018-Apr-09 13:28N 52°08' E 003°44'0 0.0
2018-Apr-09 12:55N 52°08' E 003°44'0 0.0
2018-Apr-09 12:19N 52°08' E 003°44'0 0.0
2018-Apr-09 11:55N 52°08' E 003°44'0 0.2
2018-Apr-09 11:28N 52°08' E 003°44'0 0.3
2018-Apr-09 10:52N 52°08' E 003°44'0 0.1
2018-Apr-09 10:25N 52°08' E 003°44'0 0.0
2018-Apr-09 09:46N 52°08' E 003°44'0 0.1
2018-Apr-09 09:22N 52°08' E 003°44'0 0.0
2018-Apr-09 08:58N 52°08' E 003°44'0 0.1
2018-Apr-09 08:22N 52°08' E 003°44'0 0.2
2018-Apr-09 07:58N 52°08' E 003°44'0 0.0
2018-Apr-09 07:16N 52°08' E 003°44'0 0.2
2018-Apr-09 06:58N 52°08' E 003°44'0 0.0
2018-Apr-09 06:28N 52°08' E 003°44'0 0.2
2018-Apr-09 05:58N 52°08' E 003°44'0 0.3
2018-Apr-09 05:28N 52°08' E 003°44'0 0.0
2018-Apr-09 04:55N 52°08' E 003°44'0 0.1
2018-Apr-09 04:28N 52°08' E 003°44'0 0.1
2018-Apr-09 03:52N 52°07' E 003°44'0 0.0
2018-Apr-09 03:28N 52°08' E 003°44'0 0.0
2018-Apr-09 02:58N 52°08' E 003°44'0 0.0
2018-Apr-09 02:19N 52°08' E 003°44'0 0.0
2018-Apr-09 01:58N 52°08' E 003°44'0 0.0
2018-Apr-09 01:25N 52°08' E 003°44'0 0.0
2018-Apr-09 00:55N 52°08' E 003°44'0 0.0
2018-Apr-09 00:13N 52°08' E 003°44'0 0.1
2018-Apr-08 23:58N 52°08' E 003°44'0 0.1
2018-Apr-08 23:28N 52°08' E 003°44'0 0.1
2018-Apr-08 22:55N 52°08' E 003°44'0 0.3
2018-Apr-08 22:28N 52°08' E 003°44'0 0.2
2018-Apr-08 21:58N 52°08' E 003°44'0 0.1
2018-Apr-08 21:25N 52°08' E 003°44'0 0.0
2018-Apr-08 20:58N 52°08' E 003°44'0 0.0
2018-Apr-08 20:01N 52°08' E 003°44'0 0.0
2018-Apr-08 19:34N 52°08' E 003°44'0 0.1
2018-Apr-08 19:22N 52°08' E 003°44'0 0.1
2018-Apr-08 18:55N 52°08' E 003°44'0 0.2
2018-Apr-08 18:22N 52°08' E 003°44'0 0.4
2018-Apr-08 17:58N 52°08' E 003°44'0 0.1
2018-Apr-08 17:25N 52°08' E 003°44'0 0.1
2018-Apr-08 16:58N 52°08' E 003°44'0 0.0
2018-Apr-08 16:28N 52°08' E 003°44'0 0.0
2018-Apr-08 15:55N 52°08' E 003°44'0 0.0
2018-Apr-08 15:28N 52°08' E 003°44'0 0.0
2018-Apr-08 14:58N 52°08' E 003°44'0 0.0
2018-Apr-08 14:28N 52°08' E 003°44'0 0.0
2018-Apr-08 13:58N 52°08' E 003°44'0 0.0
2018-Apr-08 13:28N 52°08' E 003°44'0 0.0
2018-Apr-08 12:55N 52°08' E 003°44'0 0.0
2018-Apr-08 12:25N 52°08' E 003°44'0 0.0
2018-Apr-08 11:58N 52°08' E 003°44'0 0.1
2018-Apr-08 10:34N 52°08' E 003°44'0 0.3
2018-Apr-08 10:28N 52°08' E 003°44'0 0.2
2018-Apr-08 09:55N 52°08' E 003°44'0 0.2
2018-Apr-08 09:28N 52°08' E 003°44'0 0.0
2018-Apr-08 08:55N 52°08' E 003°44'0 0.1
2018-Apr-08 08:19N 52°08' E 003°44'0 0.0
2018-Apr-08 07:49N 52°08' E 003°44'0 0.0
2018-Apr-08 07:16N 52°08' E 003°44'0 0.0
2018-Apr-08 06:58N 52°08' E 003°44'0 0.0
2018-Apr-08 05:49N 52°08' E 003°44'0 0.0
2018-Apr-08 05:01N 52°08' E 003°44'0 0.3
2018-Apr-08 04:46N 52°08' E 003°44'0 0.2
2018-Apr-08 04:28N 52°08' E 003°44'0 0.2
2018-Apr-08 03:52N 52°08' E 003°44'0 0.1
2018-Apr-08 03:28N 52°08' E 003°44'0 0.0
2018-Apr-08 02:55N 52°08' E 003°44'0 0.0
2018-Apr-08 02:28N 52°08' E 003°44'0 0.0
2018-Apr-08 01:58N 52°08' E 003°44'0 0.0
2018-Apr-08 01:28N 52°08' E 003°44'0 0.0
2018-Apr-08 00:58N 52°08' E 003°44'0 0.1
2018-Apr-08 00:28N 52°08' E 003°44'0 0.0
2018-Apr-07 23:52N 52°08' E 003°44'0 0.1
2018-Apr-07 23:28N 52°08' E 003°44'0 0.2
2018-Apr-07 22:55N 52°08' E 003°44'0 0.2
2018-Apr-07 22:19N 52°08' E 003°44'0 0.0
2018-Apr-07 21:04N 52°08' E 003°44'0 0.0
2018-Apr-07 20:13N 52°08' E 003°44'0 0.0
2018-Apr-07 19:58N 52°08' E 003°44'0 0.0
2018-Apr-07 19:22N 52°08' E 003°44'0 0.0
2018-Apr-07 16:49N 52°08' E 003°44'0 0.1
2018-Apr-07 16:22N 52°08' E 003°44'0 0.3
2018-Apr-07 15:58N 52°08' E 003°44'0 0.2
2018-Apr-07 15:28N 52°08' E 003°44'  
Track history (hours):
 
Tides and Currents Weather Stations Pressure Air Temp Water Temp Dewpoint Dewpoint Depression Visibility Wind Speed Wind Dir Waves Ship Positions

Hildegaard

Last reported at 2018-Apr-17 14:59 UTC. Time now 2018-Apr-26 23:16 UTC.
Position N 52°47' E 003°01'.
Warning: this ship's position is 9 days out of date.

Length 248 m; draft 8.5 m.

Type: Ship (hazmat cat A). MMSI: 308574000.

Date/timePositionNaut miles runAvg speedWind from/ knotsBaromVisibWave heightAir tempDewpointWater temp
2018-Apr-17 14:59N 52°47' E 003°01'13 6.0
2018-Apr-17 12:54N 52°34' E 003°05'3 6.1
2018-Apr-17 12:24N 52°32' E 003°07'4 5.7
2018-Apr-17 11:47N 52°28' E 003°09'3 5.5
2018-Apr-17 11:14N 52°26' E 003°11'1 5.3
2018-Apr-17 11:00N 52°24' E 003°12'7 5.2
2018-Apr-17 09:44N 52°19' E 003°17'2 5.1
2018-Apr-17 09:26N 52°17' E 003°19'6 5.4
2018-Apr-17 08:22N 52°13' E 003°25'2 5.6
2018-Apr-17 08:00N 52°11' E 003°27'3 5.8
2018-Apr-17 07:28N 52°09' E 003°31'3 6.2
2018-Apr-17 06:57N 52°07' E 003°35'3 6.1
2018-Apr-17 06:30N 52°07' E 003°39'3 5.4
2018-Apr-17 05:58N 52°08' E 003°44'0 0.1
2018-Apr-17 05:28N 52°08' E 003°44'0 0.1
2018-Apr-17 04:58N 52°08' E 003°44'0 0.1
2018-Apr-17 04:25N 52°08' E 003°44'0 0.0
2018-Apr-17 03:40N 52°08' E 003°44'0 0.0
2018-Apr-17 03:19N 52°08' E 003°44'0 0.0
2018-Apr-17 02:58N 52°08' E 003°44'0 0.0
2018-Apr-17 02:16N 52°08' E 003°44'0 0.0
2018-Apr-17 01:55N 52°08' E 003°44'0 0.0
2018-Apr-17 01:25N 52°08' E 003°44'0 0.0
2018-Apr-17 00:55N 52°08' E 003°44'0 0.2
2018-Apr-17 00:28N 52°08' E 003°44'0 0.3
2018-Apr-16 23:58N 52°08' E 003°44'0 0.1
2018-Apr-16 23:28N 52°08' E 003°44'0 0.1
2018-Apr-16 22:58N 52°08' E 003°44'0 0.0
2018-Apr-16 22:28N 52°08' E 003°44'0 0.0
2018-Apr-16 21:58N 52°08' E 003°44'0 0.0
2018-Apr-16 21:25N 52°08' E 003°44'0 0.0
2018-Apr-16 20:58N 52°08' E 003°44'0 0.0
2018-Apr-16 20:28N 52°08' E 003°44'0 0.0
2018-Apr-16 19:58N 52°08' E 003°44'0 0.1
2018-Apr-16 19:25N 52°08' E 003°44'0 0.4
2018-Apr-16 18:58N 52°08' E 003°44'0 0.1
2018-Apr-16 18:25N 52°08' E 003°44'0 0.0
2018-Apr-16 17:55N 52°08' E 003°44'0 0.0
2018-Apr-16 17:25N 52°08' E 003°44'0 0.0
2018-Apr-16 16:55N 52°08' E 003°44'0 0.0
2018-Apr-16 16:28N 52°08' E 003°44'0 0.0
2018-Apr-16 15:52N 52°08' E 003°44'0 0.0
2018-Apr-16 15:25N 52°08' E 003°44'0 0.0
2018-Apr-16 14:52N 52°08' E 003°44'0 0.0
2018-Apr-16 14:28N 52°08' E 003°44'0 0.0
2018-Apr-16 13:55N 52°08' E 003°44'0 0.0
2018-Apr-16 13:28N 52°08' E 003°44'0 0.0
2018-Apr-16 12:58N 52°08' E 003°44'0 0.0
2018-Apr-16 12:22N 52°08' E 003°44'0 0.1
2018-Apr-16 11:58N 52°08' E 003°44'0 0.3
2018-Apr-16 11:28N 52°08' E 003°44'0 0.2
2018-Apr-16 10:58N 52°08' E 003°44'0 0.0
2018-Apr-16 10:04N 52°08' E 003°44'0 0.0
2018-Apr-16 09:58N 52°08' E 003°44'0 0.0
2018-Apr-16 09:25N 52°08' E 003°44'0 0.0
2018-Apr-16 08:58N 52°08' E 003°44'0 0.0
2018-Apr-16 08:28N 52°08' E 003°44'0 0.1
2018-Apr-16 07:46N 52°08' E 003°44'0 0.3
2018-Apr-16 07:22N 52°08' E 003°44'0 0.2
2018-Apr-16 06:43N 52°08' E 003°44'0 0.0
2018-Apr-16 06:28N 52°08' E 003°44'0 0.1
2018-Apr-16 05:52N 52°08' E 003°44'0 0.0
2018-Apr-16 05:28N 52°08' E 003°44'0 0.1
2018-Apr-16 04:58N 52°08' E 003°44'0 0.1
2018-Apr-16 04:28N 52°08' E 003°44'0 0.0
2018-Apr-16 03:46N 52°08' E 003°44'0 0.0
2018-Apr-16 03:25N 52°08' E 003°44'0 0.0
2018-Apr-16 02:55N 52°08' E 003°44'0 0.0
2018-Apr-16 02:25N 52°08' E 003°44'0 0.0
2018-Apr-16 01:58N 52°08' E 003°44'0 0.0
2018-Apr-16 01:22N 52°08' E 003°44'0 0.0
2018-Apr-16 00:49N 52°08' E 003°44'0 0.0
2018-Apr-16 00:28N 52°08' E 003°44'0 0.1
2018-Apr-15 23:58N 52°08' E 003°44'0 0.3
2018-Apr-15 23:28N 52°08' E 003°44'0 0.1
2018-Apr-15 22:58N 52°08' E 003°44'0 0.0
2018-Apr-15 22:28N 52°08' E 003°44'0 0.0
2018-Apr-15 21:58N 52°08' E 003°44'0 0.0
2018-Apr-15 21:28N 52°08' E 003°44'0 0.1
2018-Apr-15 20:58N 52°08' E 003°44'0 0.0
2018-Apr-15 20:28N 52°08' E 003°44'0 0.0
2018-Apr-15 19:58N 52°08' E 003°44'0 0.0
2018-Apr-15 19:28N 52°08' E 003°44'0 0.0
2018-Apr-15 18:58N 52°08' E 003°44'0 0.0
2018-Apr-15 18:28N 52°08' E 003°44'0 0.0
2018-Apr-15 17:58N 52°08' E 003°44'0 0.3
2018-Apr-15 17:25N 52°08' E 003°44'0 0.2
2018-Apr-15 16:52N 52°08' E 003°44'0 0.1
2018-Apr-15 16:25N 52°08' E 003°44'0 0.0
2018-Apr-15 15:55N 52°08' E 003°44'0 0.0
2018-Apr-15 15:28N 52°08' E 003°44'0 0.0
2018-Apr-15 14:49N 52°08' E 003°44'0 0.0
2018-Apr-15 14:28N 52°08' E 003°44'0 0.0
2018-Apr-15 13:58N 52°08' E 003°44'0 0.0
2018-Apr-15 13:28N 52°08' E 003°44'0 0.0
2018-Apr-15 12:58N 52°08' E 003°44'0 0.0
2018-Apr-15 12:28N 52°08' E 003°44'0 0.1
2018-Apr-15 11:58N 52°08' E 003°44'0 0.5
2018-Apr-15 11:28N 52°08' E 003°44'0 0.1
2018-Apr-15 10:58N 52°08' E 003°44'0 0.0
2018-Apr-15 10:28N 52°08' E 003°44'0 0.0
2018-Apr-15 09:58N 52°08' E 003°44'0 0.0
2018-Apr-15 09:28N 52°08' E 003°44'0 0.0
2018-Apr-15 08:55N 52°08' E 003°44'0 0.0
2018-Apr-15 08:28N 52°08' E 003°44'0 0.0
2018-Apr-15 07:58N 52°08' E 003°44'0 0.0
2018-Apr-15 07:28N 52°07' E 003°44'0 0.0
2018-Apr-15 06:55N 52°07' E 003°44'0 0.0
2018-Apr-15 06:28N 52°07' E 003°44'0 0.0
2018-Apr-15 05:58N 52°08' E 003°44'0 0.2
2018-Apr-15 05:28N 52°08' E 003°44'0 0.2
2018-Apr-15 04:55N 52°08' E 003°44'0 0.1
2018-Apr-15 04:28N 52°08' E 003°44'0 0.1
2018-Apr-15 03:58N 52°08' E 003°44'0 0.0
2018-Apr-15 03:28N 52°08' E 003°44'0 0.0
2018-Apr-15 02:58N 52°08' E 003°44'0 0.0
2018-Apr-15 01:34N 52°08' E 003°44'0 0.0
2018-Apr-15 01:25N 52°08' E 003°44'0 0.0
2018-Apr-15 00:46N 52°08' E 003°44'0 0.0
2018-Apr-15 00:28N 52°08' E 003°44'0 0.2
2018-Apr-14 23:58N 52°08' E 003°44'0 0.3
2018-Apr-14 23:28N 52°08' E 003°44'0 0.0
2018-Apr-14 22:58N 52°08' E 003°44'0 0.1
2018-Apr-14 22:28N 52°08' E 003°44'0 0.0
2018-Apr-14 21:58N 52°08' E 003°44'0 0.0
2018-Apr-14 21:28N 52°08' E 003°44'0 0.0
2018-Apr-14 20:58N 52°07' E 003°44'0 0.0
2018-Apr-14 20:28N 52°07' E 003°44'0 0.0
2018-Apr-14 19:58N 52°07' E 003°44'0 0.0
2018-Apr-14 19:25N 52°07' E 003°44'0 0.0
2018-Apr-14 18:58N 52°07' E 003°44'0 0.0
2018-Apr-14 18:28N 52°07' E 003°44'0 0.0
2018-Apr-14 17:58N 52°07' E 003°44'0 0.0
2018-Apr-14 17:28N 52°07' E 003°44'0 0.3
2018-Apr-14 16:55N 52°08' E 003°44'0 0.3
2018-Apr-14 16:28N 52°08' E 003°44'0 0.0
2018-Apr-14 14:31N 52°08' E 003°44'0 0.0
2018-Apr-14 14:19N 52°08' E 003°44'0 0.0
2018-Apr-14 13:22N 52°08' E 003°44'0 0.0
2018-Apr-14 11:40N 52°08' E 003°44'0 0.2
2018-Apr-14 11:19N 52°08' E 003°44'0 0.1
2018-Apr-14 10:55N 52°08' E 003°44'0 0.2
2018-Apr-14 10:28N 52°08' E 003°44'0 0.1
2018-Apr-14 09:58N 52°08' E 003°44'0 0.0
2018-Apr-14 09:28N 52°08' E 003°44'0 0.0
2018-Apr-14 08:58N 52°08' E 003°44'0 0.0
2018-Apr-14 08:28N 52°08' E 003°44'0 0.0
2018-Apr-14 07:58N 52°08' E 003°44'0 0.0
2018-Apr-14 07:28N 52°08' E 003°44'0 0.0
2018-Apr-14 06:58N 52°08' E 003°44'0 0.0
2018-Apr-14 06:22N 52°07' E 003°44'0 0.0
2018-Apr-14 05:46N 52°07' E 003°44'0 0.1
2018-Apr-14 05:22N 52°07' E 003°44'0 0.3
2018-Apr-14 04:46N 52°08' E 003°44'0 0.0
2018-Apr-14 03:58N 52°08' E 003°44'0 0.0
2018-Apr-14 03:25N 52°08' E 003°44'0 0.0
2018-Apr-14 00:43N 52°08' E 003°44'0 0.0
2018-Apr-14 00:13N 52°08' E 003°44'0 0.0
2018-Apr-13 23:37N 52°08' E 003°44'0 0.1
2018-Apr-13 23:28N 52°08' E 003°44'0 0.1
2018-Apr-13 22:43N 52°08' E 003°44'0 0.2
2018-Apr-13 22:28N 52°08' E 003°44'0 0.2
2018-Apr-13 21:55N 52°08' E 003°44'0 0.1
2018-Apr-13 21:25N 52°08' E 003°44'0 0.0
2018-Apr-13 20:58N 52°08' E 003°44'0 0.0
2018-Apr-13 20:28N 52°08' E 003°44'0 0.0
2018-Apr-13 19:58N 52°08' E 003°44'0 0.0
2018-Apr-13 19:28N 52°08' E 003°44'0 0.0
2018-Apr-13 18:46N 52°08' E 003°44'0 0.0
2018-Apr-13 18:28N 52°08' E 003°44'0 0.0
2018-Apr-13 17:58N 52°08' E 003°44'0 0.0
2018-Apr-13 17:28N 52°08' E 003°44'0 0.1
2018-Apr-13 16:52N 52°08' E 003°44'0 0.3
2018-Apr-13 16:22N 52°08' E 003°44'0 0.0
2018-Apr-13 13:58N 52°08' E 003°44'0 0.0
2018-Apr-13 13:25N 52°08' E 003°44'0 0.0
2018-Apr-13 12:55N 52°08' E 003°44'0 0.0
2018-Apr-13 12:28N 52°08' E 003°44'0 0.0
2018-Apr-13 11:46N 52°08' E 003°44'0 0.1
2018-Apr-13 11:28N 52°08' E 003°44'0 0.1
2018-Apr-13 10:34N 52°08' E 003°44'0 0.1
2018-Apr-13 10:28N 52°08' E 003°44'0 0.2
2018-Apr-13 09:40N 52°08' E 003°44'0 0.2
2018-Apr-13 09:22N 52°07' E 003°44'0 0.1
2018-Apr-13 08:58N 52°08' E 003°44'0 0.0
2018-Apr-13 08:28N 52°08' E 003°44'0 0.0
2018-Apr-13 07:49N 52°07' E 003°44'0 0.0
2018-Apr-13 07:16N 52°07' E 003°44'0 0.0
2018-Apr-13 06:58N 52°07' E 003°44'0 0.0
2018-Apr-13 06:13N 52°07' E 003°44'0 0.0
2018-Apr-13 05:55N 52°07' E 003°44'0 0.0
2018-Apr-13 05:28N 52°07' E 003°44'0 0.0
2018-Apr-13 04:58N 52°08' E 003°44'0 0.1
2018-Apr-13 04:28N 52°08' E 003°44'0 0.3
2018-Apr-13 03:58N 52°08' E 003°44'0 0.1
2018-Apr-13 01:34N 52°08' E 003°44'0 0.0
2018-Apr-13 01:25N 52°08' E 003°44'0 0.0
2018-Apr-13 00:55N 52°08' E 003°44'0 0.0
2018-Apr-13 00:28N 52°08' E 003°44'0 0.0
2018-Apr-12 23:58N 52°08' E 003°44'0 0.1
2018-Apr-12 23:28N 52°08' E 003°44'0 0.1
2018-Apr-12 22:58N 52°08' E 003°44'0 0.3
2018-Apr-12 22:28N 52°08' E 003°44'0 0.1
2018-Apr-12 21:55N 52°08' E 003°44'0 0.0
2018-Apr-12 21:25N 52°07' E 003°44'0 0.0
2018-Apr-12 20:58N 52°07' E 003°44'0 0.0
2018-Apr-12 20:22N 52°07' E 003°44'0 0.0
2018-Apr-12 19:55N 52°07' E 003°44'0 0.0
2018-Apr-12 19:19N 52°07' E 003°44'0 0.0
2018-Apr-12 18:58N 52°07' E 003°44'0 0.0
2018-Apr-12 18:28N 52°07' E 003°44'0 0.0
2018-Apr-12 17:55N 52°07' E 003°44'0 0.0
2018-Apr-12 17:28N 52°07' E 003°44'0 0.0
2018-Apr-12 16:52N 52°07' E 003°44'0 0.0
2018-Apr-12 16:28N 52°07' E 003°44'0 0.1
2018-Apr-12 15:55N 52°07' E 003°44'0 0.0
2018-Apr-12 15:22N 52°07' E 003°44'0 0.3
2018-Apr-12 14:55N 52°08' E 003°44'0 0.2
2018-Apr-12 14:22N 52°08' E 003°44'0 0.1
2018-Apr-12 13:58N 52°08' E 003°44'0 0.1
2018-Apr-12 13:28N 52°08' E 003°44'0 0.1
2018-Apr-12 12:52N 52°08' E 003°44'0 0.1
2018-Apr-12 12:28N 52°08' E 003°44'0 0.0
2018-Apr-12 11:49N 52°08' E 003°44'0 0.1
2018-Apr-12 11:25N 52°08' E 003°44'0 0.1
2018-Apr-12 10:58N 52°08' E 003°44'0 0.1
2018-Apr-12 10:28N 52°08' E 003°44'0 0.2
2018-Apr-12 09:58N 52°08' E 003°44'0 0.1
2018-Apr-12 09:28N 52°08' E 003°44'0 0.1
2018-Apr-12 08:58N 52°08' E 003°44'0 0.1
2018-Apr-12 08:22N 52°07' E 003°44'0 0.1
2018-Apr-12 07:58N 52°08' E 003°44'0 0.1
2018-Apr-12 07:22N 52°08' E 003°44'0 0.1
2018-Apr-12 06:58N 52°08' E 003°44'0 0.0
2018-Apr-12 06:28N 52°08' E 003°44'0 0.0
2018-Apr-12 05:58N 52°08' E 003°44'0 0.0
2018-Apr-12 05:28N 52°08' E 003°44'0 0.0
2018-Apr-12 04:55N 52°08' E 003°44'0 0.1
2018-Apr-12 04:28N 52°08' E 003°44'0 0.1
2018-Apr-12 03:58N 52°08' E 003°44'0 0.0
2018-Apr-12 03:28N 52°08' E 003°44'0 0.1
2018-Apr-12 02:52N 52°08' E 003°44'0 0.3
2018-Apr-12 02:28N 52°08' E 003°44'0 0.2
2018-Apr-12 01:58N 52°08' E 003°44'0 0.1
2018-Apr-12 01:22N 52°08' E 003°44'0 0.0
2018-Apr-12 00:46N 52°08' E 003°44'0 0.0
2018-Apr-12 00:28N 52°08' E 003°44'0 0.2
2018-Apr-11 23:58N 52°08' E 003°44'0 0.1
2018-Apr-11 23:28N 52°08' E 003°44'0 0.0
2018-Apr-11 22:58N 52°08' E 003°44'0 0.3
2018-Apr-11 22:28N 52°08' E 003°44'0 0.2
2018-Apr-11 21:58N 52°08' E 003°44'0 0.3
2018-Apr-11 21:28N 52°08' E 003°44'0 0.1
2018-Apr-11 20:58N 52°08' E 003°44'0 0.0
2018-Apr-11 20:28N 52°08' E 003°44'0 0.0
2018-Apr-11 19:58N 52°08' E 003°44'0 0.0
2018-Apr-11 19:28N 52°08' E 003°44'0 0.0
2018-Apr-11 18:55N 52°08' E 003°44'0 0.0
2018-Apr-11 18:22N 52°08' E 003°44'0 0.0
2018-Apr-11 17:58N 52°08' E 003°44'0 0.0
2018-Apr-11 16:31N 52°08' E 003°44'0 0.1
2018-Apr-11 16:25N 52°08' E 003°44'0 0.0
2018-Apr-11 15:58N 52°08' E 003°44'0 0.0
2018-Apr-11 15:28N 52°08' E 003°44'0 0.1
2018-Apr-11 14:52N 52°07' E 003°44'0 0.4
2018-Apr-11 14:28N 52°08' E 003°44'0 0.4
2018-Apr-11 13:58N 52°08' E 003°44'0 0.1
2018-Apr-11 13:28N 52°08' E 003°44'0 0.0
2018-Apr-11 12:55N 52°08' E 003°44'0 0.0
2018-Apr-11 12:28N 52°08' E 003°44'0 0.0
2018-Apr-11 10:28N 52°08' E 003°44'0 0.2
2018-Apr-11 09:49N 52°08' E 003°44'0 0.3
2018-Apr-11 09:28N 52°08' E 003°44'0 0.2
2018-Apr-11 08:55N 52°08' E 003°44'0 0.0
2018-Apr-11 08:28N 52°08' E 003°44'0 0.0
2018-Apr-11 07:55N 52°08' E 003°44'0 0.0
2018-Apr-11 07:25N 52°08' E 003°44'0 0.0
2018-Apr-11 06:58N 52°08' E 003°44'0 0.1
2018-Apr-11 06:28N 52°08' E 003°44'0 0.0
2018-Apr-11 05:58N 52°08' E 003°44'0 0.0
2018-Apr-11 05:13N 52°08' E 003°44'0 0.1
2018-Apr-11 04:58N 52°08' E 003°44'0 0.0
2018-Apr-11 04:25N 52°08' E 003°44'0 0.0
2018-Apr-11 03:52N 52°08' E 003°44'0 0.0
2018-Apr-11 03:28N 52°08' E 003°44'0 0.1
2018-Apr-11 02:58N 52°08' E 003°44'0 0.1
2018-Apr-11 02:25N 52°08' E 003°44'0 0.2
2018-Apr-11 01:22N 52°08' E 003°44'0 0.2
2018-Apr-11 00:58N 52°08' E 003°44'0 0.0
2018-Apr-11 00:25N 52°08' E 003°44'0 0.0
2018-Apr-10 23:55N 52°08' E 003°44'0 0.1
2018-Apr-10 23:28N 52°08' E 003°44'0 0.0
2018-Apr-10 22:52N 52°08' E 003°44'0 0.1
2018-Apr-10 22:25N 52°08' E 003°44'0 0.1
2018-Apr-10 21:58N 52°08' E 003°44'0 0.1
2018-Apr-10 21:28N 52°08' E 003°44'0 0.0
2018-Apr-10 20:58N 52°08' E 003°44'0 0.3
2018-Apr-10 20:28N 52°08' E 003°44'0 0.2
2018-Apr-10 19:55N 52°08' E 003°44'0 0.1
2018-Apr-10 19:28N 52°08' E 003°44'0 0.0
2018-Apr-10 18:58N 52°08' E 003°44'0 0.0
2018-Apr-10 18:28N 52°08' E 003°44'0 0.0
2018-Apr-10 17:58N 52°08' E 003°44'0 0.0
2018-Apr-10 17:28N 52°08' E 003°44'0 0.0
2018-Apr-10 16:58N 52°08' E 003°44'0 0.0
2018-Apr-10 16:28N 52°08' E 003°44'0 0.0
2018-Apr-10 15:58N 52°08' E 003°44'0 0.0
2018-Apr-10 15:25N 52°08' E 003°44'0 0.0
2018-Apr-10 14:58N 52°08' E 003°44'0 0.0
2018-Apr-10 14:28N 52°08' E 003°44'0 0.0
2018-Apr-10 13:55N 52°08' E 003°44'0 0.2
2018-Apr-10 13:10N 52°08' E 003°44'0 0.1
2018-Apr-10 12:52N 52°08' E 003°44'0 0.1
2018-Apr-10 11:22N 52°08' E 003°44'0 0.1
2018-Apr-10 10:49N 52°08' E 003°44'0 0.0
2018-Apr-10 10:25N 52°08' E 003°44'0 0.0
2018-Apr-10 09:49N 52°08' E 003°44'0 0.1
2018-Apr-10 09:28N 52°08' E 003°44'0 0.0
2018-Apr-10 08:28N 52°08' E 003°44'0 0.0
2018-Apr-10 07:55N 52°08' E 003°44'0 0.1
2018-Apr-10 07:19N 52°08' E 003°44'0 0.3
2018-Apr-10 06:58N 52°08' E 003°44'0 0.3
2018-Apr-10 06:28N 52°08' E 003°44'0 0.0
2018-Apr-10 05:55N 52°08' E 003°44'0 0.0
2018-Apr-10 05:28N 52°08' E 003°44'0 0.0
2018-Apr-10 04:58N 52°08' E 003°44'0 0.1
2018-Apr-10 04:28N 52°08' E 003°44'0 0.0
2018-Apr-10 03:58N 52°08' E 003°44'0 0.0
2018-Apr-10 03:28N 52°08' E 003°44'0 0.0
2018-Apr-10 02:58N 52°08' E 003°44'0 0.1
2018-Apr-10 02:28N 52°08' E 003°44'0 0.0
2018-Apr-10 01:58N 52°08' E 003°44'0 0.0
2018-Apr-10 01:28N 52°08' E 003°44'0 0.1
2018-Apr-10 00:58N 52°08' E 003°44'0 0.1
2018-Apr-10 00:28N 52°08' E 003°44'0 0.0
2018-Apr-09 23:58N 52°08' E 003°44'0 0.0
2018-Apr-09 23:28N 52°08' E 003°44'0 0.0
2018-Apr-09 22:58N 52°08' E 003°44'0 0.2
2018-Apr-09 22:28N 52°08' E 003°44'0 0.2
2018-Apr-09 21:58N 52°08' E 003°44'0 0.0
2018-Apr-09 21:25N 52°08' E 003°44'0 0.1
2018-Apr-09 20:58N 52°08' E 003°44'0 0.2
2018-Apr-09 20:25N 52°08' E 003°44'0 0.2
2018-Apr-09 19:58N 52°08' E 003°44'0 0.1
2018-Apr-09 19:28N 52°08' E 003°44'0 0.1
2018-Apr-09 18:58N 52°08' E 003°44'0 0.0
2018-Apr-09 18:28N 52°08' E 003°44'0 0.0
2018-Apr-09 17:58N 52°08' E 003°44'0 0.0
2018-Apr-09 17:28N 52°08' E 003°44'0 0.0
2018-Apr-09 16:58N 52°08' E 003°44'0 0.0
2018-Apr-09 16:28N 52°08' E 003°44'0 0.0
2018-Apr-09 15:52N 52°08' E 003°44'0 0.0
2018-Apr-09 15:28N 52°08' E 003°44'0 0.0
2018-Apr-09 14:52N 52°08' E 003°44'0 0.0
2018-Apr-09 14:28N 52°08' E 003°44'0 0.0
2018-Apr-09 13:58N 52°08' E 003°44'0 0.0
2018-Apr-09 13:28N 52°08' E 003°44'0 0.0
2018-Apr-09 12:55N 52°08' E 003°44'0 0.0
2018-Apr-09 12:19N 52°08' E 003°44'0 0.0
2018-Apr-09 11:55N 52°08' E 003°44'0 0.2
2018-Apr-09 11:28N 52°08' E 003°44'0 0.3
2018-Apr-09 10:52N 52°08' E 003°44'0 0.1
2018-Apr-09 10:25N 52°08' E 003°44'0 0.0
2018-Apr-09 09:46N 52°08' E 003°44'0 0.1
2018-Apr-09 09:22N 52°08' E 003°44'0 0.0
2018-Apr-09 08:58N 52°08' E 003°44'0 0.1
2018-Apr-09 08:22N 52°08' E 003°44'0 0.2
2018-Apr-09 07:58N 52°08' E 003°44'0 0.0
2018-Apr-09 07:16N 52°08' E 003°44'0 0.2
2018-Apr-09 06:58N 52°08' E 003°44'0 0.0
2018-Apr-09 06:28N 52°08' E 003°44'0 0.2
2018-Apr-09 05:58N 52°08' E 003°44'0 0.3
2018-Apr-09 05:28N 52°08' E 003°44'0 0.0
2018-Apr-09 04:55N 52°08' E 003°44'0 0.1
2018-Apr-09 04:28N 52°08' E 003°44'0 0.1
2018-Apr-09 03:52N 52°07' E 003°44'0 0.0
2018-Apr-09 03:28N 52°08' E 003°44'0 0.0
2018-Apr-09 02:58N 52°08' E 003°44'0 0.0
2018-Apr-09 02:19N 52°08' E 003°44'0 0.0
2018-Apr-09 01:58N 52°08' E 003°44'0 0.0
2018-Apr-09 01:25N 52°08' E 003°44'0 0.0
2018-Apr-09 00:55N 52°08' E 003°44'0 0.0
2018-Apr-09 00:13N 52°08' E 003°44'0 0.1
2018-Apr-08 23:58N 52°08' E 003°44'0 0.1
2018-Apr-08 23:28N 52°08' E 003°44'0 0.1
2018-Apr-08 22:55N 52°08' E 003°44'0 0.3
2018-Apr-08 22:28N 52°08' E 003°44'0 0.2
2018-Apr-08 21:58N 52°08' E 003°44'0 0.1
2018-Apr-08 21:25N 52°08' E 003°44'0 0.0
2018-Apr-08 20:58N 52°08' E 003°44'0 0.0
2018-Apr-08 20:01N 52°08' E 003°44'0 0.0
2018-Apr-08 19:34N 52°08' E 003°44'0 0.1
2018-Apr-08 19:22N 52°08' E 003°44'0 0.1
2018-Apr-08 18:55N 52°08' E 003°44'0 0.2
2018-Apr-08 18:22N 52°08' E 003°44'0 0.4
2018-Apr-08 17:58N 52°08' E 003°44'0 0.1
2018-Apr-08 17:25N 52°08' E 003°44'0 0.1
2018-Apr-08 16:58N 52°08' E 003°44'0 0.0
2018-Apr-08 16:28N 52°08' E 003°44'0 0.0
2018-Apr-08 15:55N 52°08' E 003°44'0 0.0
2018-Apr-08 15:28N 52°08' E 003°44'0 0.0
2018-Apr-08 14:58N 52°08' E 003°44'0 0.0
2018-Apr-08 14:28N 52°08' E 003°44'0 0.0
2018-Apr-08 13:58N 52°08' E 003°44'0 0.0
2018-Apr-08 13:28N 52°08' E 003°44'0 0.0
2018-Apr-08 12:55N 52°08' E 003°44'0 0.0
2018-Apr-08 12:25N 52°08' E 003°44'0 0.0
2018-Apr-08 11:58N 52°08' E 003°44'0 0.1
2018-Apr-08 10:34N 52°08' E 003°44'0 0.3
2018-Apr-08 10:28N 52°08' E 003°44'0 0.2
2018-Apr-08 09:55N 52°08' E 003°44'0 0.2
2018-Apr-08 09:28N 52°08' E 003°44'0 0.0
2018-Apr-08 08:55N 52°08' E 003°44'0 0.1
2018-Apr-08 08:19N 52°08' E 003°44'0 0.0
2018-Apr-08 07:49N 52°08' E 003°44'0 0.0
2018-Apr-08 07:16N 52°08' E 003°44'0 0.0
2018-Apr-08 06:58N 52°08' E 003°44'0 0.0
2018-Apr-08 05:49N 52°08' E 003°44'0 0.0
2018-Apr-08 05:01N 52°08' E 003°44'0 0.3
2018-Apr-08 04:46N 52°08' E 003°44'0 0.2
2018-Apr-08 04:28N 52°08' E 003°44'0 0.2
2018-Apr-08 03:52N 52°08' E 003°44'0 0.1
2018-Apr-08 03:28N 52°08' E 003°44'0 0.0
2018-Apr-08 02:55N 52°08' E 003°44'0 0.0
2018-Apr-08 02:28N 52°08' E 003°44'0 0.0
2018-Apr-08 01:58N 52°08' E 003°44'0 0.0
2018-Apr-08 01:28N 52°08' E 003°44'0 0.0
2018-Apr-08 00:58N 52°08' E 003°44'0 0.1
2018-Apr-08 00:28N 52°08' E 003°44'0 0.0
2018-Apr-07 23:52N 52°08' E 003°44'0 0.1
2018-Apr-07 23:28N 52°08' E 003°44'0 0.2
2018-Apr-07 22:55N 52°08' E 003°44'0 0.2
2018-Apr-07 22:19N 52°08' E 003°44'0 0.0
2018-Apr-07 21:04N 52°08' E 003°44'0 0.0
2018-Apr-07 20:13N 52°08' E 003°44'0 0.0
2018-Apr-07 19:58N 52°08' E 003°44'0 0.0
2018-Apr-07 19:22N 52°08' E 003°44'0 0.0
2018-Apr-07 16:49N 52°08' E 003°44'0 0.1
2018-Apr-07 16:22N 52°08' E 003°44'0 0.3
2018-Apr-07 15:58N 52°08' E 003°44'0 0.2
2018-Apr-07 15:28N 52°08' E 003°44'  

Dump ship's entire track history